createdAt,value
2018-08-30T00:02:22.611Z,15.30
2018-08-30T00:04:51.026Z,15.28
2018-08-30T00:07:19.498Z,15.33
2018-08-30T00:09:47.965Z,15.29
2018-08-30T00:12:16.397Z,15.30
2018-08-30T00:14:44.926Z,15.32
2018-08-30T00:17:13.385Z,15.34
2018-08-30T00:19:41.817Z,15.33
2018-08-30T00:22:10.264Z,15.36
2018-08-30T00:24:38.839Z,15.35
2018-08-30T00:27:07.297Z,15.39
2018-08-30T00:29:35.867Z,15.39
2018-08-30T00:32:04.327Z,15.31
2018-08-30T00:34:32.780Z,15.33
2018-08-30T00:37:01.233Z,15.32
2018-08-30T00:39:29.660Z,15.33
2018-08-30T00:41:58.894Z,15.35
2018-08-30T00:44:27.329Z,15.38
2018-08-30T00:46:55.766Z,15.36
2018-08-30T00:49:24.205Z,15.35
2018-08-30T00:51:52.667Z,15.37
2018-08-30T00:54:21.129Z,15.39
2018-08-30T00:56:49.624Z,15.36
2018-08-30T00:59:18.053Z,15.36
2018-08-30T01:01:46.509Z,15.34
2018-08-30T01:04:14.954Z,15.32
2018-08-30T01:06:43.366Z,15.35
2018-08-30T01:09:11.797Z,15.35
2018-08-30T01:11:40.257Z,15.32
2018-08-30T01:14:08.712Z,15.33
2018-08-30T01:16:37.139Z,15.34
2018-08-30T01:19:05.621Z,15.29
2018-08-30T01:21:34.053Z,15.25
2018-08-30T01:24:02.511Z,15.27
2018-08-30T01:26:30.932Z,15.28
2018-08-30T01:28:59.390Z,15.28
2018-08-30T01:31:27.878Z,15.30
2018-08-30T01:33:56.307Z,15.25
2018-08-30T01:36:24.757Z,15.24
2018-08-30T01:38:53.238Z,15.20
2018-08-30T01:41:21.690Z,15.23
2018-08-30T01:43:50.150Z,15.23
2018-08-30T01:46:18.630Z,15.22
2018-08-30T01:48:47.075Z,15.24
2018-08-30T01:51:15.532Z,15.26
2018-08-30T01:53:43.985Z,15.26
2018-08-30T01:56:12.445Z,15.27
2018-08-30T01:58:40.939Z,15.26
2018-08-30T02:01:09.354Z,15.28
2018-08-30T02:03:37.807Z,15.21
2018-08-30T02:06:06.255Z,15.20
2018-08-30T02:08:34.701Z,15.20
2018-08-30T02:11:03.137Z,15.18
2018-08-30T02:13:31.706Z,15.19
2018-08-30T02:16:00.097Z,15.17
2018-08-30T02:18:28.573Z,15.20
2018-08-30T02:20:57.021Z,15.21
2018-08-30T02:23:25.538Z,15.21
2018-08-30T02:25:54.190Z,15.22
2018-08-30T02:28:22.666Z,15.19
2018-08-30T02:30:51.149Z,15.21
2018-08-30T02:33:19.738Z,15.23
2018-08-30T02:35:48.214Z,15.28
2018-08-30T02:38:16.669Z,15.26
2018-08-30T02:40:45.094Z,15.24
2018-08-30T02:43:13.519Z,15.24
2018-08-30T02:45:41.938Z,15.22
2018-08-30T02:48:10.395Z,15.21
2018-08-30T02:50:38.814Z,15.25
2018-08-30T02:53:07.890Z,15.24
2018-08-30T02:55:36.329Z,15.25
2018-08-30T02:58:04.806Z,15.30
2018-08-30T03:00:33.185Z,15.29
2018-08-30T03:03:01.606Z,15.31
2018-08-30T03:05:29.993Z,15.31
2018-08-30T03:07:58.370Z,15.33
2018-08-30T03:10:26.771Z,15.31
2018-08-30T03:12:55.198Z,15.29
2018-08-30T03:15:23.576Z,15.26
2018-08-30T03:17:51.938Z,15.23
2018-08-30T03:20:20.397Z,15.21
2018-08-30T03:22:48.758Z,15.33
2018-08-30T03:25:17.189Z,15.29
2018-08-30T03:27:45.630Z,15.32
2018-08-30T03:30:14.116Z,15.26
2018-08-30T03:32:42.380Z,15.27
2018-08-30T03:35:10.765Z,15.32
2018-08-30T03:37:39.162Z,15.33
2018-08-30T03:40:07.603Z,15.35
2018-08-30T03:42:36.019Z,15.29
2018-08-30T03:45:04.432Z,15.26
2018-08-30T03:47:32.789Z,15.28
2018-08-30T03:50:01.183Z,15.27
2018-08-30T03:52:29.562Z,15.25
2018-08-30T03:54:57.978Z,15.30
2018-08-30T03:57:26.374Z,15.25
2018-08-30T03:59:54.777Z,15.31
2018-08-30T04:02:23.165Z,15.23
2018-08-30T04:04:51.581Z,15.26
2018-08-30T04:07:19.979Z,15.29
2018-08-30T04:09:48.445Z,15.32
2018-08-30T04:12:16.782Z,15.34
2018-08-30T04:14:45.171Z,15.33
2018-08-30T04:17:13.584Z,15.34
2018-08-30T04:19:42.051Z,15.37
2018-08-30T04:22:10.483Z,15.33
2018-08-30T04:24:38.912Z,15.34
2018-08-30T04:27:07.338Z,15.37
2018-08-30T04:29:35.778Z,15.36
2018-08-30T04:32:04.290Z,15.36
2018-08-30T04:34:32.685Z,15.40
2018-08-30T04:37:01.069Z,15.44
2018-08-30T04:39:29.489Z,15.42
2018-08-30T04:41:57.914Z,15.43
2018-08-30T04:44:26.323Z,15.45
2018-08-30T04:46:54.688Z,15.45
2018-08-30T04:49:23.088Z,15.39
2018-08-30T04:51:51.477Z,15.37
2018-08-30T04:54:19.903Z,15.40
2018-08-30T04:56:48.353Z,15.38
2018-08-30T04:59:16.802Z,15.35
2018-08-30T05:01:45.234Z,15.40
2018-08-30T05:04:13.644Z,15.44
2018-08-30T05:06:42.017Z,15.44
2018-08-30T05:09:11.778Z,15.50
2018-08-30T05:11:40.252Z,15.46
2018-08-30T05:14:09.040Z,15.51
2018-08-30T05:16:37.829Z,15.47
2018-08-30T05:19:06.309Z,15.49
2018-08-30T05:21:35.172Z,15.52
2018-08-30T05:24:03.592Z,15.59
2018-08-30T05:26:32.007Z,15.56
2018-08-30T05:29:00.377Z,15.59
2018-08-30T05:31:28.760Z,15.65
2018-08-30T05:33:57.136Z,15.65
2018-08-30T05:36:25.542Z,15.68
2018-08-30T05:38:54.013Z,15.66
2018-08-30T05:41:22.400Z,15.63
2018-08-30T05:43:50.797Z,15.64
2018-08-30T05:46:19.255Z,15.64
2018-08-30T05:48:47.652Z,15.69
2018-08-30T05:51:16.058Z,15.69
2018-08-30T05:53:44.460Z,15.73
2018-08-30T05:56:12.945Z,15.76
2018-08-30T05:58:41.381Z,15.78
2018-08-30T06:01:09.862Z,15.87
2018-08-30T06:03:38.274Z,15.88
2018-08-30T06:06:06.735Z,15.88
2018-08-30T06:08:35.151Z,15.91
2018-08-30T06:11:03.608Z,15.95
2018-08-30T06:13:32.023Z,15.98
2018-08-30T06:16:00.488Z,16.08
2018-08-30T06:18:28.964Z,16.00
2018-08-30T06:20:57.385Z,16.04
2018-08-30T06:23:25.803Z,16.04
2018-08-30T06:25:54.249Z,16.16
2018-08-30T06:28:22.677Z,16.16
2018-08-30T06:30:51.148Z,16.16
2018-08-30T06:33:19.637Z,16.15
2018-08-30T06:35:48.118Z,16.24
2018-08-30T06:38:16.530Z,16.27
2018-08-30T06:40:46.687Z,16.21
2018-08-30T06:43:26.613Z,16.30
2018-08-30T06:46:10.339Z,16.29
2018-08-30T06:51:16.605Z,16.35
2018-08-30T06:53:45.705Z,16.27
2018-08-30T06:56:15.503Z,16.33
2018-08-30T07:01:37.585Z,16.56
2018-08-30T07:04:07.103Z,16.59
2018-08-30T07:06:43.982Z,16.59
2018-08-30T07:09:13.862Z,16.50
2018-08-30T07:14:23.813Z,16.52
2018-08-30T07:16:52.369Z,16.57
2018-08-30T07:19:20.805Z,16.59
2018-08-30T07:21:49.314Z,16.53
2018-08-30T07:24:17.861Z,16.49
2018-08-30T07:26:46.278Z,16.63
2018-08-30T07:29:14.737Z,16.75
2018-08-30T07:31:43.193Z,16.90
2018-08-30T07:34:11.648Z,17.30
2018-08-30T07:36:40.101Z,17.33
2018-08-30T07:39:10.173Z,17.55
2018-08-30T07:41:38.653Z,17.84
2018-08-30T07:44:07.437Z,17.77
2018-08-30T07:46:35.889Z,17.51
2018-08-30T07:49:04.349Z,17.77
2018-08-30T07:51:32.793Z,17.74
2018-08-30T07:54:01.261Z,17.55
2018-08-30T07:56:29.669Z,17.95
2018-08-30T07:58:58.196Z,18.06
2018-08-30T08:01:26.617Z,17.98
2018-08-30T08:03:56.084Z,17.98
2018-08-30T08:06:24.522Z,18.11
2018-08-30T08:08:52.904Z,18.03
2018-08-30T08:11:21.299Z,17.95
2018-08-30T08:13:49.711Z,18.16
2018-08-30T08:16:18.103Z,18.29
2018-08-30T08:18:47.012Z,18.65
2018-08-30T08:21:15.415Z,18.67
2018-08-30T08:23:44.910Z,18.13
2018-08-30T08:26:13.304Z,17.73
2018-08-30T08:28:41.745Z,17.90
2018-08-30T08:31:10.440Z,18.18
2018-08-30T08:33:38.958Z,18.19
2018-08-30T08:36:07.397Z,18.03
2018-08-30T08:38:35.866Z,17.98
2018-08-30T08:41:04.256Z,18.05
2018-08-30T08:43:32.640Z,18.20
2018-08-30T08:46:01.043Z,18.37
2018-08-30T08:48:29.433Z,18.69
2018-08-30T08:50:57.816Z,18.75
2018-08-30T08:53:26.257Z,18.60
2018-08-30T08:55:54.653Z,18.54
2018-08-30T08:58:23.081Z,18.52
2018-08-30T09:00:51.464Z,18.78
2018-08-30T09:03:19.897Z,18.63
2018-08-30T09:05:48.272Z,18.75
2018-08-30T09:08:16.649Z,18.63
2018-08-30T09:10:45.064Z,18.59
2018-08-30T09:13:13.498Z,18.77
2018-08-30T09:15:41.891Z,18.97
2018-08-30T09:18:10.381Z,19.22
2018-08-30T09:20:38.782Z,19.60
2018-08-30T09:23:07.258Z,19.55
2018-08-30T09:25:36.032Z,19.47
2018-08-30T09:28:04.425Z,19.00
2018-08-30T09:30:32.805Z,18.77
2018-08-30T09:33:01.233Z,18.78
2018-08-30T09:35:29.625Z,18.66
2018-08-30T09:37:58.049Z,19.02
2018-08-30T09:40:26.409Z,18.93
2018-08-30T09:42:54.890Z,19.16
2018-08-30T09:45:23.277Z,18.97
2018-08-30T09:47:51.669Z,18.76
2018-08-30T09:50:20.050Z,18.83
2018-08-30T10:09:48.491Z,19.66
2018-08-30T10:12:16.945Z,20.14
2018-08-30T10:14:47.222Z,20.34
2018-08-30T10:17:15.697Z,19.88
2018-08-30T10:19:44.126Z,19.08
2018-08-30T10:22:12.569Z,19.11
2018-08-30T10:24:41.073Z,19.16
2018-08-30T10:27:09.480Z,19.43
2018-08-30T10:29:37.910Z,19.51
2018-08-30T10:32:06.417Z,19.36
2018-08-30T10:34:34.823Z,19.20
2018-08-30T10:37:03.258Z,19.16
2018-08-30T10:39:31.638Z,19.72
2018-08-30T10:42:00.050Z,19.85
2018-08-30T10:44:28.474Z,19.94
2018-08-30T10:46:56.882Z,19.62
2018-08-30T10:49:25.390Z,19.81
2018-08-30T10:51:53.756Z,19.72
2018-08-30T10:54:22.236Z,19.49
2018-08-30T10:56:50.796Z,19.78
2018-08-30T10:59:19.249Z,20.17
2018-08-30T11:01:47.756Z,19.85
2018-08-30T11:04:16.165Z,19.57
2018-08-30T11:06:44.694Z,19.58
2018-08-30T11:09:13.108Z,19.65
2018-08-30T11:11:41.587Z,19.76
2018-08-30T11:14:10.026Z,19.68
2018-08-30T11:16:48.320Z,19.88
2018-08-30T11:19:16.727Z,20.32
2018-08-30T11:21:45.153Z,20.05
2018-08-30T11:24:13.614Z,20.33
2018-08-30T11:26:41.993Z,20.76
2018-08-30T11:29:10.453Z,20.35
2018-08-30T11:31:38.830Z,20.05
2018-08-30T11:34:07.547Z,20.11
2018-08-30T11:36:42.322Z,20.11
2018-08-30T11:39:10.800Z,20.47
2018-08-30T11:41:39.438Z,20.36
2018-08-30T11:44:08.241Z,20.78
2018-08-30T11:46:37.162Z,20.74
2018-08-30T11:49:05.677Z,20.71
2018-08-30T11:51:34.092Z,20.43
2018-08-30T11:54:02.574Z,20.22
2018-08-30T11:56:31.037Z,20.50
2018-08-30T11:58:59.448Z,20.74
2018-08-30T12:01:27.887Z,20.79
2018-08-30T12:03:58.254Z,20.85
2018-08-30T12:06:26.785Z,21.06
2018-08-30T12:08:55.372Z,20.48
2018-08-30T12:11:23.984Z,20.49
2018-08-30T12:13:52.394Z,20.93
2018-08-30T12:16:20.793Z,20.80
2018-08-30T12:18:49.198Z,20.82
2018-08-30T12:21:17.693Z,21.13
2018-08-30T12:23:46.183Z,20.80
2018-08-30T12:26:14.609Z,21.05
2018-08-30T12:28:43.080Z,21.00
2018-08-30T12:31:11.582Z,21.20
2018-08-30T12:33:40.061Z,21.35
2018-08-30T12:36:08.732Z,21.58
2018-08-30T12:38:37.174Z,21.48
2018-08-30T12:41:05.606Z,21.56
2018-08-30T12:43:34.191Z,21.55
2018-08-30T12:46:02.524Z,21.29
2018-08-30T12:48:31.059Z,21.30
2018-08-30T12:50:59.639Z,21.42
2018-08-30T12:53:27.936Z,21.31
2018-08-30T12:55:57.045Z,21.21
2018-08-30T12:58:25.725Z,21.59
2018-08-30T13:00:54.129Z,22.16
2018-08-30T13:03:22.652Z,22.34
2018-08-30T13:05:51.227Z,22.22
2018-08-30T13:08:19.644Z,22.07
2018-08-30T13:10:53.280Z,22.43
2018-08-30T13:13:22.332Z,22.23
2018-08-30T13:15:50.975Z,22.10
2018-08-30T13:18:19.690Z,22.36
2018-08-30T13:20:48.570Z,22.95
2018-08-30T13:23:17.557Z,23.89
2018-08-30T13:25:46.337Z,23.67
2018-08-30T13:45:57.098Z,23.21
2018-08-30T13:48:25.537Z,23.27
2018-08-30T13:50:53.997Z,23.38
2018-08-30T13:53:22.289Z,23.00
2018-08-30T14:08:46.373Z,24.10
2018-08-30T14:11:14.891Z,24.81
2018-08-30T14:13:43.183Z,24.56
2018-08-30T14:16:12.087Z,24.93
2018-08-30T14:18:40.513Z,24.83
2018-08-30T14:21:09.022Z,25.35
2018-08-30T14:23:37.465Z,23.84
2018-08-30T14:26:05.957Z,24.13
2018-08-30T14:28:34.467Z,24.50
2018-08-30T14:31:02.863Z,24.32
2018-08-30T14:33:31.257Z,24.19
2018-08-30T14:35:59.679Z,25.17
2018-08-30T14:38:28.244Z,25.50
2018-08-30T14:40:56.750Z,25.83
2018-08-30T14:43:25.066Z,24.49
2018-08-30T14:45:53.522Z,24.40
2018-08-30T14:48:22.095Z,24.28
2018-08-30T14:50:56.545Z,24.07
2018-08-30T14:53:25.256Z,24.54
2018-08-30T14:55:53.544Z,24.53
2018-08-30T14:58:21.961Z,24.09
2018-08-30T15:00:50.415Z,24.07
2018-08-30T15:03:18.816Z,23.92
2018-08-30T15:05:47.276Z,23.08
2018-08-30T15:08:15.654Z,24.03
2018-08-30T15:10:44.097Z,24.20
2018-08-30T15:13:12.558Z,24.21
2018-08-30T15:15:41.043Z,25.19
2018-08-30T15:18:11.665Z,24.90
2018-08-30T15:20:40.094Z,24.65
2018-08-30T15:23:09.277Z,23.81
2018-08-30T15:25:37.715Z,23.34
2018-08-30T15:28:06.685Z,22.54
2018-08-30T15:30:35.124Z,23.36
2018-08-30T15:33:03.529Z,24.19
2018-08-30T15:35:31.984Z,24.20
2018-08-30T15:38:00.446Z,24.81
2018-08-30T15:40:28.914Z,24.25
2018-08-30T15:42:57.373Z,23.37
2018-08-30T15:45:25.800Z,22.63
2018-08-30T15:47:54.269Z,22.35
2018-08-30T15:50:22.747Z,21.98
2018-08-30T15:52:51.180Z,22.43
2018-08-30T15:55:19.586Z,22.01
2018-08-30T15:57:48.356Z,21.53
2018-08-30T16:00:17.306Z,21.25
2018-08-30T16:02:46.566Z,20.96
2018-08-30T16:05:15.209Z,21.03
2018-08-30T16:07:44.213Z,21.42
2018-08-30T16:10:13.731Z,21.97
2018-08-30T16:12:42.121Z,22.45
2018-08-30T16:15:10.601Z,22.79
2018-08-30T16:17:39.056Z,22.65
2018-08-30T16:20:07.517Z,22.60
2018-08-30T16:22:52.816Z,22.36
2018-08-30T16:25:21.230Z,21.96
2018-08-30T16:27:49.655Z,22.01
2018-08-30T16:30:18.146Z,21.54
2018-08-30T16:32:46.626Z,21.14
2018-08-30T16:35:15.110Z,21.04
2018-08-30T16:37:43.545Z,21.23
2018-08-30T16:40:11.995Z,21.34
2018-08-30T16:42:40.441Z,21.22
2018-08-30T16:45:09.010Z,21.04
2018-08-30T16:47:37.453Z,20.81
2018-08-30T16:50:06.149Z,20.82
2018-08-30T16:52:34.569Z,20.77
2018-08-30T16:55:03.157Z,20.75
2018-08-30T16:57:31.453Z,20.55
2018-08-30T16:59:59.972Z,20.39
2018-08-30T17:02:28.764Z,20.39
2018-08-30T17:05:10.153Z,20.33
2018-08-30T17:07:38.584Z,20.40
2018-08-30T17:10:07.234Z,20.40
2018-08-30T17:12:35.700Z,20.32
2018-08-30T17:15:04.680Z,20.30
2018-08-30T17:17:33.288Z,20.30
2018-08-30T17:20:01.788Z,20.31
2018-08-30T17:22:30.285Z,20.32
2018-08-30T17:24:58.675Z,20.22
2018-08-30T17:27:27.093Z,20.17
2018-08-30T17:29:59.192Z,20.18
2018-08-30T17:32:27.625Z,20.18
2018-08-30T17:34:56.456Z,20.13
2018-08-30T17:37:24.905Z,20.10
2018-08-30T17:39:53.329Z,20.07
2018-08-30T17:42:21.772Z,20.05
2018-08-30T17:44:50.300Z,19.97
2018-08-30T17:47:18.712Z,19.82
2018-08-30T17:49:55.183Z,19.70
2018-08-30T17:52:23.702Z,19.46
2018-08-30T17:54:52.417Z,19.42
2018-08-30T17:57:20.889Z,19.29
2018-08-30T17:59:49.457Z,19.15
2018-08-30T18:02:17.868Z,19.04
2018-08-30T18:04:46.409Z,18.86
2018-08-30T18:07:14.958Z,18.78
2018-08-30T18:09:43.298Z,18.65
2018-08-30T18:12:11.738Z,18.53
2018-08-30T18:14:40.186Z,18.44
2018-08-30T18:17:08.625Z,18.32
2018-08-30T18:19:37.494Z,18.19
2018-08-30T18:22:06.341Z,18.06
2018-08-30T18:24:34.809Z,18.02
2018-08-30T18:27:03.353Z,17.91
2018-08-30T18:29:31.769Z,17.84
2018-08-30T18:32:02.361Z,17.82
2018-08-30T18:34:30.795Z,17.73
2018-08-30T18:36:59.257Z,17.66
2018-08-30T18:39:27.690Z,17.55
2018-08-30T18:41:56.202Z,17.49
2018-08-30T18:44:24.710Z,17.42
2018-08-30T18:46:53.133Z,17.34
2018-08-30T18:49:21.615Z,17.28
2018-08-30T18:51:50.050Z,17.26
2018-08-30T18:54:18.474Z,17.22
2018-08-30T18:56:46.883Z,17.14
2018-08-30T18:59:15.325Z,17.08
2018-08-30T19:01:43.752Z,17.00
2018-08-30T19:04:12.210Z,16.92
2018-08-30T19:06:40.589Z,16.71
2018-08-30T19:09:10.597Z,16.72
2018-08-30T19:11:39.120Z,16.55
2018-08-30T19:14:07.895Z,16.49
2018-08-30T19:16:41.573Z,16.38
2018-08-30T19:19:18.687Z,16.35
2018-08-30T19:21:47.129Z,16.62
2018-08-30T19:24:21.630Z,16.68
2018-08-30T19:26:50.277Z,16.53
2018-08-30T19:29:18.940Z,16.49
2018-08-30T19:31:47.361Z,16.37
2018-08-30T19:34:15.990Z,16.36
2018-08-30T19:36:44.332Z,16.26
2018-08-30T19:39:13.229Z,16.19
2018-08-30T19:41:41.787Z,16.10
2018-08-30T19:44:10.661Z,16.01
2018-08-30T19:46:39.085Z,15.96
2018-08-30T19:49:07.583Z,15.75
2018-08-30T19:51:36.038Z,15.49
2018-08-30T19:54:04.529Z,15.76
2018-08-30T19:56:32.974Z,15.83
2018-08-30T19:59:01.436Z,15.84
2018-08-30T20:01:29.915Z,15.89
2018-08-30T20:03:58.401Z,15.92
2018-08-30T20:06:26.821Z,15.86
2018-08-30T20:08:55.245Z,15.77
2018-08-30T20:11:23.905Z,15.66
2018-08-30T20:13:52.369Z,15.63
2018-08-30T20:16:20.822Z,15.65
2018-08-30T20:18:49.277Z,15.57
2018-08-30T20:21:17.729Z,15.60
2018-08-30T20:23:46.158Z,15.63
2018-08-30T20:26:14.590Z,15.61
2018-08-30T20:28:43.045Z,15.59
2018-08-30T20:31:11.501Z,15.63
2018-08-30T20:33:39.941Z,15.52
2018-08-30T20:36:08.402Z,15.59
2018-08-30T20:38:36.893Z,15.59
2018-08-30T20:41:05.429Z,15.47
2018-08-30T20:43:33.899Z,15.38
2018-08-30T20:46:02.359Z,15.38
2018-08-30T20:48:30.818Z,15.34
2018-08-30T20:50:59.304Z,15.31
2018-08-30T20:53:27.795Z,15.25
2018-08-30T20:55:56.310Z,15.19
2018-08-30T20:58:24.878Z,15.22
2018-08-30T21:00:53.385Z,15.21
2018-08-30T21:03:21.880Z,15.17
2018-08-30T21:05:50.569Z,15.15
2018-08-30T21:08:19.075Z,15.11
2018-08-30T21:10:47.723Z,15.06
2018-08-30T21:13:16.159Z,15.02
2018-08-30T21:15:44.643Z,14.92
2018-08-30T21:18:13.194Z,14.97
2018-08-30T21:20:42.627Z,14.94
2018-08-30T21:23:11.213Z,14.88
2018-08-30T21:25:39.645Z,14.86
2018-08-30T21:28:08.037Z,14.81
2018-08-30T21:30:36.842Z,14.80
2018-08-30T21:33:05.508Z,14.77
2018-08-30T21:35:33.986Z,14.67
2018-08-30T21:38:02.445Z,14.60
2018-08-30T21:40:30.950Z,14.58
2018-08-30T21:42:59.391Z,14.51
2018-08-30T21:45:27.838Z,14.44
2018-08-30T21:47:56.253Z,14.35
2018-08-30T21:50:24.717Z,14.27
2018-08-30T21:52:53.165Z,14.25
2018-08-30T21:55:21.624Z,14.24
2018-08-30T21:57:50.071Z,14.25
2018-08-30T22:00:18.614Z,14.25
2018-08-30T22:02:47.162Z,14.23
2018-08-30T22:05:15.595Z,14.23
2018-08-30T22:07:44.017Z,14.18
2018-08-30T22:10:12.489Z,14.12
2018-08-30T22:12:40.906Z,14.09
2018-08-30T22:15:09.377Z,14.09
2018-08-30T22:17:38.432Z,14.05
2018-08-30T22:20:06.897Z,14.00
2018-08-30T22:22:35.352Z,13.95
2018-08-30T22:25:03.958Z,13.93
2018-08-30T22:27:32.448Z,13.85
2018-08-30T22:30:01.642Z,13.78
2018-08-30T22:32:30.037Z,13.77
2018-08-30T22:34:58.469Z,13.70
2018-08-30T22:37:26.893Z,13.69
2018-08-30T22:39:55.301Z,13.68
2018-08-30T22:42:23.723Z,13.62
2018-08-30T22:44:52.150Z,13.61
2018-08-30T22:47:20.545Z,13.61
2018-08-30T22:49:49.001Z,13.66
2018-08-30T22:52:17.712Z,13.70
2018-08-30T22:54:47.279Z,13.65
2018-08-30T22:57:15.721Z,13.65
2018-08-30T22:59:44.234Z,13.64
2018-08-30T23:02:12.662Z,13.64
2018-08-30T23:04:41.114Z,13.60
2018-08-30T23:07:09.545Z,13.56
2018-08-30T23:09:38.062Z,13.48
2018-08-30T23:12:06.826Z,13.39
2018-08-30T23:14:35.318Z,13.27
2018-08-30T23:17:04.448Z,13.30
2018-08-30T23:19:32.898Z,13.29
2018-08-30T23:22:01.361Z,13.27
2018-08-30T23:24:29.808Z,13.27
2018-08-30T23:26:58.277Z,13.24
2018-08-30T23:29:26.703Z,13.23
2018-08-30T23:31:55.182Z,13.14
2018-08-30T23:34:23.646Z,13.12
2018-08-30T23:36:52.091Z,13.08
2018-08-30T23:39:20.526Z,13.10
2018-08-30T23:41:48.954Z,13.11
2018-08-30T23:44:17.436Z,13.17
2018-08-30T23:46:45.873Z,13.23
2018-08-30T23:49:14.363Z,13.27
2018-08-30T23:51:42.846Z,13.24
2018-08-30T23:54:11.264Z,13.29
2018-08-30T23:56:39.702Z,13.28
2018-08-30T23:59:19.233Z,13.26
